Briercrest, Canada
Current Conditions -  °F | °C
As of 10:00 AM on Tuesday 21 Oct 2014 (Local Time) from CYMJ Reporting Station
Few Clouds Few Clouds  
Wind Chill: 45°   Ceiling: Unl
Heat Index: 48°   Visibility: 15mi
Dew Point: 43°   Wind: 7mph
Humidity: 82%   Direction: 100°E
Pressure: 29.64"   Gusts: NA
Location:  50.17°N, 105.27°W
Report Text: CYMJ 211600Z 10006KT 15SM FEW120 FEW250 09/06 A2964 RMK AC1CI1SLP051
Loading
Personal Weather Stations






























Interactive Weather Map
Tropical Storm Tracking
New forecast layout! Learn more

10-Day Weather Forecast

Advertisements
Track Severe Weather on mobile